createdAt,value
2022-09-25T00:03:32.179Z,20.38
2022-09-25T00:08:35.821Z,17.83
2022-09-25T00:13:40.861Z,17.38
2022-09-25T00:19:02.488Z,19.92
2022-09-25T00:24:10.455Z,21.57
2022-09-25T00:29:18.662Z,21.20
2022-09-25T00:34:21.313Z,22.48
2022-09-25T00:39:24.530Z,20.92
2022-09-25T00:44:58.735Z,22.17
2022-09-25T00:50:03.129Z,24.70
2022-09-25T00:55:08.273Z,20.27
2022-09-25T01:00:12.863Z,19.85
2022-09-25T01:05:18.849Z,25.15
2022-09-25T01:10:22.131Z,22.33
2022-09-25T01:15:37.343Z,19.83
2022-09-25T01:21:17.588Z,22.50
2022-09-25T01:26:34.870Z,21.25
2022-09-25T01:31:48.409Z,20.00
2022-09-25T01:37:10.705Z,17.80
2022-09-25T01:42:22.541Z,23.27
2022-09-25T01:47:28.727Z,22.52
2022-09-25T01:52:45.026Z,22.65
2022-09-25T01:57:59.135Z,20.60
2022-09-25T02:03:11.731Z,21.00
2022-09-25T02:08:22.421Z,26.07
2022-09-25T02:13:28.501Z,24.98
2022-09-25T02:18:49.743Z,18.20
2022-09-25T02:24:40.734Z,20.95
2022-09-25T02:29:43.341Z,19.42
2022-09-25T02:34:46.472Z,22.80
2022-09-25T02:39:54.801Z,21.70
2022-09-25T02:45:03.394Z,19.05
2022-09-25T02:50:50.689Z,20.40
2022-09-25T02:56:14.602Z,18.75
2022-09-25T03:01:20.615Z,19.70
2022-09-25T03:06:24.301Z,19.70
2022-09-25T03:11:27.851Z,21.00
2022-09-25T03:16:49.198Z,18.65
2022-09-25T03:21:51.863Z,18.65
2022-09-25T03:26:54.781Z,21.83
2022-09-25T03:31:57.475Z,18.60
2022-09-25T03:37:00.156Z,20.50
2022-09-25T03:42:02.832Z,20.02
2022-09-25T03:47:05.431Z,16.60
2022-09-25T03:52:08.514Z,18.50
2022-09-25T03:57:13.016Z,17.50
2022-09-25T04:02:15.709Z,19.05
2022-09-25T04:07:18.431Z,19.83
2022-09-25T04:12:22.761Z,17.23
2022-09-25T04:17:25.464Z,19.17
2022-09-25T04:22:28.078Z,15.32
2022-09-25T04:27:30.825Z,14.40
2022-09-25T04:32:52.559Z,16.33
2022-09-25T04:37:55.295Z,18.23
2022-09-25T04:43:03.171Z,16.47
2022-09-25T04:48:06.145Z,17.95
2022-09-25T04:53:09.171Z,19.80
2022-09-25T04:58:12.049Z,20.42
2022-09-25T05:03:15.767Z,20.75
2022-09-25T05:08:18.684Z,18.87
2022-09-25T05:13:21.599Z,18.85
2022-09-25T05:18:24.768Z,29.60
2022-09-25T05:23:27.332Z,41.17
2022-09-25T05:28:31.741Z,87.00
2022-09-25T05:33:35.621Z,162.37
2022-09-25T05:38:40.006Z,147.00
2022-09-25T05:43:45.130Z,70.82
2022-09-25T05:48:48.002Z,100.47
2022-09-25T05:53:50.567Z,98.72
2022-09-25T05:58:54.375Z,94.57
2022-09-25T06:03:57.016Z,72.03
2022-09-25T06:08:59.866Z,67.05
2022-09-25T06:14:04.206Z,56.55
2022-09-25T06:19:07.013Z,39.15
2022-09-25T06:24:11.009Z,39.77
2022-09-25T06:29:13.717Z,40.42
2022-09-25T06:34:16.487Z,43.33
2022-09-25T06:39:19.163Z,41.22
2022-09-25T06:44:23.150Z,42.78
2022-09-25T06:49:26.012Z,34.10
2022-09-25T06:54:31.290Z,23.80
2022-09-25T06:59:33.974Z,22.80
2022-09-25T07:04:37.201Z,20.55
2022-09-25T07:09:39.876Z,24.70
2022-09-25T07:14:44.706Z,19.17
2022-09-25T07:19:47.342Z,19.25
2022-09-25T07:24:50.032Z,30.65
2022-09-25T07:29:52.989Z,22.17
2022-09-25T07:34:55.777Z,19.95
2022-09-25T07:39:58.433Z,21.80
2022-09-25T07:45:01.176Z,23.75
2022-09-25T07:50:04.966Z,22.58
2022-09-25T07:55:08.743Z,20.08
2022-09-25T08:00:12.284Z,21.55
2022-09-25T08:05:15.522Z,20.37
2022-09-25T08:10:19.323Z,17.77
2022-09-25T08:15:22.309Z,16.15
2022-09-25T08:20:24.953Z,21.73
2022-09-25T08:25:27.725Z,15.40
2022-09-25T08:30:30.640Z,18.13
2022-09-25T08:35:33.412Z,18.48
2022-09-25T08:40:57.499Z,18.02
2022-09-25T08:46:20.148Z,21.27
2022-09-25T08:51:23.083Z,15.90
2022-09-25T08:56:28.942Z,15.57
2022-09-25T09:01:52.469Z,17.75
2022-09-25T09:07:25.844Z,14.73
2022-09-25T09:12:39.590Z,16.52
2022-09-25T09:17:43.424Z,14.15
2022-09-25T09:22:51.204Z,18.03
2022-09-25T09:28:13.105Z,14.05
2022-09-25T09:33:34.523Z,15.40
2022-09-25T09:39:32.344Z,14.63
2022-09-25T09:44:57.932Z,13.48
2022-09-25T09:50:19.337Z,12.67
2022-09-25T09:55:31.195Z,11.60
2022-09-25T10:00:35.420Z,11.98
2022-09-25T10:05:45.826Z,10.95
2022-09-25T10:10:54.171Z,13.50
2022-09-25T10:16:11.624Z,12.40
2022-09-25T10:21:22.704Z,14.05
2022-09-25T10:26:30.413Z,11.90
2022-09-25T10:31:38.880Z,12.32
2022-09-25T10:36:47.165Z,12.55
2022-09-25T10:41:50.204Z,13.37
2022-09-25T10:47:15.734Z,10.50
2022-09-25T10:52:22.451Z,12.65
2022-09-25T10:57:38.537Z,14.15
2022-09-25T11:02:46.797Z,12.48
2022-09-25T11:07:59.342Z,10.77
2022-09-25T11:13:21.808Z,10.77
2022-09-25T11:18:46.520Z,11.65
2022-09-25T11:24:04.502Z,13.98
2022-09-25T11:29:21.484Z,12.70
2022-09-25T11:34:35.921Z,14.53
2022-09-25T11:40:25.912Z,15.25
2022-09-25T11:45:39.512Z,14.18
2022-09-25T11:51:03.154Z,15.15
2022-09-25T11:56:43.983Z,14.75
2022-09-25T12:01:53.282Z,20.23
2022-09-25T12:07:13.464Z,20.88
2022-09-25T12:12:54.487Z,23.13
2022-09-25T12:18:25.421Z,19.30
2022-09-25T12:23:28.155Z,20.23
2022-09-25T12:28:43.654Z,19.97
2022-09-25T12:34:09.362Z,21.48
2022-09-25T12:40:04.005Z,18.20
2022-09-25T12:45:33.120Z,19.58
2022-09-25T12:50:48.025Z,14.27
2022-09-25T12:56:13.945Z,16.93
2022-09-25T13:01:46.310Z,15.80
2022-09-25T13:07:20.898Z,14.68
2022-09-25T13:12:38.020Z,14.73
2022-09-25T13:17:40.990Z,16.27
2022-09-25T13:22:43.723Z,18.93
2022-09-25T13:27:47.381Z,18.50
2022-09-25T13:32:56.264Z,17.50
2022-09-25T13:38:36.239Z,18.95
2022-09-25T13:43:39.071Z,22.50
2022-09-25T13:48:42.013Z,23.50
2022-09-25T13:54:04.056Z,28.88
2022-09-25T13:59:13.349Z,32.55
2022-09-25T14:04:19.592Z,23.67
2022-09-25T14:09:25.120Z,21.80
2022-09-25T14:14:37.060Z,20.23
2022-09-25T14:19:44.181Z,37.17
2022-09-25T14:24:47.809Z,28.38
2022-09-25T14:29:50.830Z,29.77
2022-09-25T14:35:17.620Z,24.02
2022-09-25T14:40:30.396Z,21.57
2022-09-25T14:45:48.645Z,23.88
2022-09-25T14:50:59.012Z,24.25
2022-09-25T14:56:04.047Z,24.10
2022-09-25T15:01:29.920Z,23.75
2022-09-25T15:06:35.705Z,25.10
2022-09-25T15:11:43.660Z,23.98
2022-09-25T15:17:05.680Z,24.45
2022-09-25T15:22:18.179Z,20.80
2022-09-25T15:27:22.865Z,21.83
2022-09-25T15:32:35.590Z,20.10
2022-09-25T15:37:39.035Z,24.63
2022-09-25T15:42:46.228Z,22.08
2022-09-25T15:47:52.603Z,19.05
2022-09-25T15:52:58.974Z,20.95
2022-09-25T15:58:13.363Z,22.07
2022-09-25T16:03:45.248Z,25.17
2022-09-25T16:08:48.220Z,27.50
2022-09-25T16:14:16.800Z,28.38
2022-09-25T16:19:25.683Z,24.23
2022-09-25T16:24:30.102Z,30.60
2022-09-25T16:29:37.545Z,24.27
2022-09-25T16:34:41.921Z,29.95
2022-09-25T16:39:44.972Z,28.67
2022-09-25T16:44:49.412Z,22.10
2022-09-25T16:49:52.282Z,27.87
2022-09-25T16:54:57.638Z,26.00
2022-09-25T17:00:01.375Z,26.92
2022-09-25T17:05:19.612Z,25.35
2022-09-25T17:10:25.330Z,26.50
2022-09-25T17:15:33.009Z,26.37
2022-09-25T17:20:36.220Z,29.90
2022-09-25T17:25:50.081Z,24.23
2022-09-25T17:30:53.096Z,29.33
2022-09-25T17:36:05.742Z,23.10
2022-09-25T17:41:21.014Z,29.43
2022-09-25T17:46:25.267Z,30.15
2022-09-25T17:51:30.154Z,26.90
2022-09-25T17:56:35.048Z,27.33
2022-09-25T18:01:39.935Z,28.83
2022-09-25T18:06:43.809Z,29.47
2022-09-25T18:11:46.903Z,31.02
2022-09-25T18:16:49.695Z,28.30
2022-09-25T18:22:10.814Z,29.55
2022-09-25T18:27:15.709Z,34.67
2022-09-25T18:32:18.699Z,29.77
2022-09-25T18:37:21.566Z,31.15
2022-09-25T18:42:24.410Z,35.80
2022-09-25T18:47:27.576Z,37.47
2022-09-25T18:52:31.669Z,34.92
2022-09-25T18:57:38.475Z,33.27
2022-09-25T19:02:44.032Z,35.85
2022-09-25T19:07:46.878Z,34.88
2022-09-25T19:12:49.617Z,29.30
2022-09-25T19:17:52.466Z,33.63
2022-09-25T19:22:55.420Z,34.17
2022-09-25T19:27:58.107Z,41.95
2022-09-25T19:33:00.877Z,34.13
2022-09-25T19:38:03.616Z,35.30
2022-09-25T19:43:08.397Z,35.92
2022-09-25T19:48:11.159Z,38.23
2022-09-25T19:53:14.406Z,35.72
2022-09-25T19:58:19.937Z,33.28
2022-09-25T20:03:25.866Z,50.10
2022-09-25T20:08:28.896Z,41.72
2022-09-25T20:13:32.256Z,39.87
2022-09-25T20:18:34.960Z,38.15
2022-09-25T20:23:37.838Z,36.28
2022-09-25T20:28:42.386Z,43.53
2022-09-25T20:33:45.479Z,45.33
2022-09-25T20:38:53.404Z,45.70
2022-09-25T20:43:57.459Z,42.65
2022-09-25T20:49:00.926Z,39.28
2022-09-25T20:54:09.545Z,45.33
2022-09-25T20:59:12.696Z,46.78
2022-09-25T21:04:18.427Z,49.30
2022-09-25T21:09:26.895Z,45.22
2022-09-25T21:14:29.793Z,43.95
2022-09-25T21:19:32.477Z,43.53
2022-09-25T21:24:36.086Z,43.83
2022-09-25T21:29:38.777Z,46.30
2022-09-25T21:34:41.716Z,45.72
2022-09-25T21:39:45.139Z,44.53
2022-09-25T21:44:48.172Z,45.42
2022-09-25T21:49:51.200Z,47.05
2022-09-25T21:54:54.836Z,41.13
2022-09-25T21:59:57.497Z,44.67
2022-09-25T22:05:00.153Z,43.20
2022-09-25T22:10:03.133Z,38.72
2022-09-25T22:15:06.294Z,67.78
2022-09-25T22:20:10.697Z,45.57
2022-09-25T22:25:13.458Z,77.25
2022-09-25T22:30:16.175Z,83.32
2022-09-25T22:35:18.768Z,109.55
2022-09-25T22:40:21.601Z,40.53
2022-09-25T22:45:24.304Z,38.80
2022-09-25T22:50:29.985Z,45.08
2022-09-25T22:55:33.959Z,41.15
2022-09-25T23:00:36.615Z,45.33
2022-09-25T23:05:39.838Z,57.83
2022-09-25T23:11:05.628Z,41.30
2022-09-25T23:16:07.467Z,50.00
2022-09-25T23:21:10.051Z,65.65
2022-09-25T23:26:12.685Z,41.42
2022-09-25T23:31:17.668Z,39.50
2022-09-25T23:36:23.383Z,39.03
2022-09-25T23:41:36.085Z,47.65
2022-09-25T23:46:41.401Z,40.38
2022-09-25T23:51:44.150Z,44.03
2022-09-25T23:56:47.016Z,41.85
